Time;durP1;ratioP1;P1;durP2;ratioP2;P2;SDS_P1;SDS_P2;PMS_P1;PMS_P2;Temp;Humidity;BMP_temperature;BMP_pressure;BME280_temperature;BME280_humidity;BME280_pressure;Samples;Min_cycle;Max_cycle;Signal;HPM_P1;HPM_P2
2023/06/03 00:01:11;;;;;;;1.83;0.87;;;;;;;8.08;100.00;101887.69;4992007;28;20137;-75
2023/06/03 00:03:39;;;;;;;2.77;0.90;;;;;;;8.00;100.00;101862.53;4991680;28;20037;-75
2023/06/03 00:06:04;;;;;;;2.38;0.63;;;;;;;7.99;100.00;101866.16;4977922;28;20110;-75
2023/06/03 00:08:30;;;;;;;1.20;0.75;;;;;;;7.98;100.00;101864.50;4976211;28;20215;-75
2023/06/03 00:10:55;;;;;;;5.10;1.43;;;;;;;7.95;100.00;101869.19;4991286;28;20033;-75
2023/06/03 00:13:21;;;;;;;3.73;1.10;;;;;;;7.91;100.00;101865.91;4989128;28;20561;-75
2023/06/03 00:15:46;;;;;;;2.17;0.73;;;;;;;7.89;100.00;101872.31;4998458;28;20057;-76
2023/06/03 00:18:13;;;;;;;2.42;0.80;;;;;;;7.86;100.00;101877.88;4983087;28;20129;-75
2023/06/03 00:20:39;;;;;;;4.13;0.82;;;;;;;7.84;100.00;101870.00;5001689;28;20085;-75
2023/06/03 00:23:05;;;;;;;2.50;1.00;;;;;;;7.85;100.00;101868.19;4989679;28;20030;-75
2023/06/03 00:25:34;;;;;;;2.55;1.00;;;;;;;7.85;100.00;101871.69;4994184;28;20036;-75
2023/06/03 00:28:00;;;;;;;2.03;0.90;;;;;;;7.80;100.00;101863.25;4955200;28;20489;-75
2023/06/03 00:30:26;;;;;;;2.20;1.20;;;;;;;7.76;100.00;101859.94;4965721;28;20478;-75
2023/06/03 00:32:52;;;;;;;2.30;1.10;;;;;;;7.71;100.00;101858.63;4986657;28;20046;-75
2023/06/03 00:35:17;;;;;;;2.47;0.80;;;;;;;7.68;100.00;101867.69;4987898;28;20050;-75
2023/06/03 00:37:43;;;;;;;3.23;0.93;;;;;;;7.63;100.00;101863.66;5004198;28;20030;-75
2023/06/03 00:40:09;;;;;;;2.00;1.10;;;;;;;7.60;100.00;101868.22;4986336;28;21113;-75
2023/06/03 00:42:35;;;;;;;1.25;0.70;;;;;;;7.52;100.00;101867.97;5003044;28;20490;-75
2023/06/03 00:45:00;;;;;;;1.33;0.90;;;;;;;7.49;100.00;101870.88;4984808;28;20141;-75
2023/06/03 00:47:26;;;;;;;4.27;1.00;;;;;;;7.54;100.00;101913.88;4987814;28;20030;-75
2023/06/03 00:49:52;;;;;;;;;;;;;;;7.54;100.00;101923.69;4970649;28;20370;-75
2023/06/03 00:52:17;;;;;;;;;;;;;;;7.50;100.00;101915.06;5004354;28;19967;-75
2023/06/03 00:54:44;;;;;;;7.05;1.17;;;;;;;7.47;100.00;101909.13;4997491;28;19913;-75
2023/06/03 00:57:10;;;;;;;1.35;0.63;;;;;;;7.46;100.00;101913.59;5003340;28;20034;-75
2023/06/03 00:59:35;;;;;;;1.50;1.00;;;;;;;7.41;100.00;101902.47;4987472;28;20029;-75
2023/06/03 01:02:01;;;;;;;2.27;1.23;;;;;;;7.39;100.00;101905.22;4969716;28;20065;-76
2023/06/03 01:04:28;;;;;;;3.53;1.00;;;;;;;7.35;100.00;101882.53;4986368;28;20049;-75
2023/06/03 01:07:17;;;;;;;3.10;0.90;;;;;;;7.31;100.00;101883.72;5002152;28;20030;-75
2023/06/03 01:09:53;;;;;;;1.23;0.90;;;;;;;7.30;100.00;101889.13;4982521;28;20502;-75
2023/06/03 01:12:28;;;;;;;2.45;0.90;;;;;;;7.28;100.00;101886.59;4976541;28;20029;-75
2023/06/03 01:14:57;;;;;;;2.05;0.88;;;;;;;7.25;100.00;101885.97;4978055;28;20042;-75
2023/06/03 01:17:27;;;;;;;1.70;0.70;;;;;;;7.18;100.00;101881.09;4995096;28;20023;-75
2023/06/03 01:19:56;;;;;;;1.65;0.93;;;;;;;7.18;100.00;101878.44;4971044;28;20034;-75
2023/06/03 01:22:26;;;;;;;1.80;1.10;;;;;;;7.17;100.00;101883.88;4996659;28;20025;-75
2023/06/03 01:25:05;;;;;;;0.95;0.82;;;;;;;7.13;100.00;101883.25;4999369;28;20042;-75
2023/06/03 01:27:30;;;;;;;3.17;0.98;;;;;;;7.10;100.00;101872.00;4994626;28;20030;-75
2023/06/03 01:29:56;;;;;;;2.28;0.88;;;;;;;7.05;100.00;101880.31;4985438;28;20024;-75
2023/06/03 01:32:22;;;;;;;5.85;0.93;;;;;;;7.07;100.00;101873.09;4986627;28;20467;-75
2023/06/03 01:34:49;;;;;;;5.13;1.33;;;;;;;7.00;100.00;101870.97;4995084;28;20026;-75
2023/06/03 01:37:15;;;;;;;1.30;0.80;;;;;;;6.95;100.00;101876.63;4946478;28;20038;-75
2023/06/03 01:39:42;;;;;;;1.70;0.88;;;;;;;6.91;100.00;101876.00;4999441;28;20105;-75
2023/06/03 01:42:10;;;;;;;3.88;1.00;;;;;;;6.95;100.00;101882.78;4986040;28;20056;-75
2023/06/03 01:44:36;;;;;;;4.70;1.30;;;;;;;6.91;100.00;101883.13;4985570;28;20033;-75
2023/06/03 01:47:03;;;;;;;;;;;;;;;6.91;100.00;101889.28;4986230;28;20030;-75
2023/06/03 01:49:31;;;;;;;1.98;1.20;;;;;;;6.87;100.00;101881.66;5004478;28;19916;-75
2023/06/03 01:51:58;;;;;;;4.18;1.27;;;;;;;6.84;100.00;101881.88;4964834;28;20113;-75
2023/06/03 01:54:25;;;;;;;1.50;0.88;;;;;;;6.82;100.00;101887.28;4981383;28;20022;-75
2023/06/03 01:56:53;;;;;;;1.55;1.08;;;;;;;6.80;100.00;101883.88;5002366;28;20133;-77
2023/06/03 01:59:23;;;;;;;2.13;1.08;;;;;;;6.75;100.00;101881.56;4996833;28;20497;-75
2023/06/03 02:01:53;;;;;;;2.85;2.10;;;;;;;6.71;100.00;101888.03;4995036;28;20069;-75
2023/06/03 02:04:20;;;;;;;4.38;1.50;;;;;;;6.71;100.00;101887.19;4988830;28;20034;-75
2023/06/03 02:06:52;;;;;;;2.45;1.63;;;;;;;6.72;100.00;101894.22;4991994;28;20010;-76
2023/06/03 02:09:20;;;;;;;3.72;1.10;;;;;;;6.67;100.00;101904.28;4974188;28;20104;-75
2023/06/03 02:11:47;;;;;;;2.25;1.30;;;;;;;6.68;100.00;101913.97;5000856;28;20428;-75
2023/06/03 02:14:13;;;;;;;6.72;1.80;;;;;;;6.59;100.00;101911.97;4977208;28;20038;-75
2023/06/03 02:16:40;;;;;;;2.42;1.33;;;;;;;6.56;100.00;101918.34;4953189;28;20029;-75
2023/06/03 02:19:17;;;;;;;1.20;0.90;;;;;;;6.53;100.00;101913.22;4984869;28;20452;-75
2023/06/03 02:21:43;;;;;;;6.57;1.63;;;;;;;6.53;100.00;101914.09;4988932;28;20052;-75
2023/06/03 02:24:10;;;;;;;1.90;1.30;;;;;;;6.48;100.00;101910.06;4971377;28;20021;-75
2023/06/03 02:26:38;;;;;;;;;;;;;;;6.47;100.00;101911.03;4985495;28;20034;-75
2023/06/03 02:29:05;;;;;;;1.45;1.17;;;;;;;6.41;100.00;101891.06;4983237;28;19910;-75
2023/06/03 02:31:30;;;;;;;2.20;1.45;;;;;;;6.44;100.00;101895.28;4986229;28;20037;-75
2023/06/03 02:33:56;;;;;;;3.70;1.40;;;;;;;6.47;100.00;101916.31;4998663;28;20041;-75
2023/06/03 02:36:21;;;;;;;1.30;0.87;;;;;;;6.43;100.00;101914.84;4985077;28;20065;-75
2023/06/03 02:38:47;;;;;;;3.50;1.20;;;;;;;6.48;100.00;101932.13;4967175;28;20467;-75
2023/06/03 02:41:14;;;;;;;2.15;1.10;;;;;;;6.42;100.00;101923.75;4980060;28;20031;-75
2023/06/03 02:43:41;;;;;;;2.70;1.10;;;;;;;6.46;100.00;101930.53;4975602;28;20453;-74
2023/06/03 02:46:06;;;;;;;3.78;1.63;;;;;;;6.48;100.00;101931.28;4953850;28;20057;-74
2023/06/03 02:48:32;;;;;;;1.75;1.20;;;;;;;6.52;100.00;101936.25;4966943;28;20104;-74
2023/06/03 02:50:57;;;;;;;4.90;1.47;;;;;;;6.59;100.00;101965.88;4967919;28;20037;-77
2023/06/03 02:53:22;;;;;;;2.33;1.37;;;;;;;6.50;100.00;101953.25;4950772;28;20023;-76
2023/06/03 02:55:48;;;;;;;3.10;1.40;;;;;;;6.46;100.00;101967.66;4956665;28;20179;-74
2023/06/03 02:58:15;;;;;;;2.57;1.60;;;;;;;6.45;100.00;101973.94;4953278;28;20296;-75
2023/06/03 03:00:41;;;;;;;3.10;1.20;;;;;;;6.50;100.00;101985.09;4954108;28;20431;-74
2023/06/03 03:03:06;;;;;;;2.03;1.30;;;;;;;6.45;100.00;101974.78;4976530;28;20141;-76
2023/06/03 03:05:32;;;;;;;2.53;1.50;;;;;;;6.43;100.00;101967.88;4958473;28;20396;-77
2023/06/03 03:07:58;;;;;;;3.17;1.30;;;;;;;6.38;100.00;101962.06;4968541;28;20384;-77
2023/06/03 03:10:25;;;;;;;6.85;1.70;;;;;;;6.31;100.00;101961.63;4956219;28;20092;-76
2023/06/03 03:12:50;;;;;;;5.20;1.92;;;;;;;6.31;100.00;101981.03;4963525;28;20030;-77
2023/06/03 03:15:17;;;;;;;4.53;1.95;;;;;;;6.42;100.00;102004.19;4954541;28;20034;-76
2023/06/03 03:17:42;;;;;;;2.10;1.52;;;;;;;6.50;100.00;102016.91;4992716;28;20406;-77
2023/06/03 03:20:09;;;;;;;2.55;1.52;;;;;;;6.41;100.00;102001.63;4994047;28;20321;-77
2023/06/03 03:22:34;;;;;;;2.30;1.52;;;;;;;6.38;100.00;101991.25;4986754;28;20026;-77
2023/06/03 03:25:00;;;;;;;2.33;1.40;;;;;;;6.41;100.00;101991.03;4983718;28;20077;-77
2023/06/03 03:27:26;;;;;;;;;;;;;;;6.44;100.00;101980.19;4950232;28;20023;-76
2023/06/03 03:29:57;;;;;;;1.40;1.13;;;;;;;6.48;100.00;101973.72;4943212;28;20008;-77
2023/06/03 03:32:23;;;;;;;2.38;1.50;;;;;;;6.50;100.00;101966.50;4966053;28;20435;-77
2023/06/03 03:35:14;;;;;;;4.65;1.40;;;;;;;6.57;100.00;101957.16;4965127;28;20847;-76
2023/06/03 03:37:41;;;;;;;2.83;1.45;;;;;;;6.62;100.00;101970.97;4977284;28;20040;-76
2023/06/03 03:40:20;;;;;;;2.72;1.88;;;;;;;6.65;100.00;101967.25;4957985;28;20086;-77
2023/06/03 03:42:49;;;;;;;3.08;1.83;;;;;;;6.80;100.00;101978.59;4963289;28;20404;-77
2023/06/03 03:45:17;;;;;;;4.03;1.73;;;;;;;6.79;100.00;101985.72;4969214;28;20387;-77
2023/06/03 03:47:42;;;;;;;3.60;1.95;;;;;;;6.79;100.00;101974.22;4960992;28;20057;-78
2023/06/03 03:50:37;;;;;;;4.82;1.70;;;;;;;6.89;100.00;101975.31;4952708;28;20033;-76
2023/06/03 03:53:06;;;;;;;3.47;1.42;;;;;;;6.98;100.00;101972.00;4969747;28;20049;-76
2023/06/03 03:55:33;;;;;;;2.70;1.40;;;;;;;7.09;100.00;101964.09;4990486;28;20033;-76
2023/06/03 03:58:04;;;;;;;3.65;1.50;;;;;;;7.23;100.00;101978.19;4965222;28;20030;-77
2023/06/03 04:00:33;;;;;;;6.32;1.80;;;;;;;7.37;100.00;101999.28;4957503;28;20133;-77
2023/06/03 04:02:58;;;;;;;2.28;1.40;;;;;;;7.43;100.00;101998.03;4965100;28;20033;-76
2023/06/03 04:05:25;;;;;;;2.13;1.57;;;;;;;7.54;100.00;101993.63;4950193;28;20030;-77
2023/06/03 04:07:50;;;;;;;2.42;1.48;;;;;;;7.68;100.00;101999.72;4980629;28;20030;-75
2023/06/03 04:10:20;;;;;;;2.77;1.63;;;;;;;7.79;100.00;101995.28;4961894;28;20037;-77
2023/06/03 04:12:47;;;;;;;1.70;1.42;;;;;;;7.90;100.00;101991.84;4977541;28;20034;-76
2023/06/03 04:15:13;;;;;;;3.40;1.65;;;;;;;8.03;100.00;101976.69;4956655;28;20019;-76
2023/06/03 04:17:40;;;;;;;3.58;1.77;;;;;;;8.22;100.00;101983.28;4964977;28;20533;-77
2023/06/03 04:20:21;;;;;;;4.10;2.10;;;;;;;8.36;100.00;101979.56;4936740;28;20459;-77
2023/06/03 04:22:51;;;;;;;1.60;1.30;;;;;;;8.48;100.00;101970.66;4935699;28;20027;-75
2023/06/03 04:25:18;;;;;;;3.28;1.50;;;;;;;8.63;100.00;101960.59;4961591;28;20029;-75
2023/06/03 04:27:49;;;;;;;3.45;1.30;;;;;;;8.73;100.00;101937.59;4958269;28;20223;-75
2023/06/03 04:30:16;;;;;;;5.72;1.45;;;;;;;8.91;100.00;101945.97;4964108;28;20058;-74
2023/06/03 04:32:41;;;;;;;1.33;1.10;;;;;;;9.05;100.00;101939.53;4949229;28;20112;-75
2023/06/03 04:35:07;;;;;;;2.50;1.33;;;;;;;9.20;100.00;101942.75;4949685;28;20306;-75
2023/06/03 04:37:35;;;;;;;2.65;1.30;;;;;;;9.34;100.00;101947.84;4957171;28;20211;-75
2023/06/03 04:40:01;;;;;;;2.67;1.70;;;;;;;9.54;100.00;101951.53;4958012;28;20038;-75
2023/06/03 04:42:30;;;;;;;2.00;1.00;;;;;;;9.75;100.00;101966.72;4956833;28;20031;-75
2023/06/03 04:44:58;;;;;;;1.98;1.52;;;;;;;9.92;100.00;101952.81;4967371;28;20038;-75
2023/06/03 04:47:28;;;;;;;9.48;1.25;;;;;;;10.08;100.00;101955.88;4963144;28;20109;-75
2023/06/03 04:49:55;;;;;;;2.35;1.23;;;;;;;10.24;100.00;101950.09;4935875;28;20113;-75
2023/06/03 04:52:20;;;;;;;1.67;1.15;;;;;;;10.42;100.00;101952.19;4968637;28;20026;-74
2023/06/03 04:54:51;;;;;;;3.85;1.45;;;;;;;10.56;100.00;101950.03;4967609;28;20034;-74
2023/06/03 04:57:19;;;;;;;2.90;1.10;;;;;;;10.67;100.00;101956.25;4968567;28;20113;-75
2023/06/03 04:59:45;;;;;;;1.10;1.00;;;;;;;10.72;100.00;101943.34;4943974;28;20118;-75
2023/06/03 05:02:16;;;;;;;4.32;1.10;;;;;;;11.01;100.00;101958.66;4940631;28;20034;-76
2023/06/03 05:04:44;;;;;;;3.28;1.27;;;;;;;11.06;100.00;101932.38;4975220;28;20054;-74
2023/06/03 05:07:11;;;;;;;3.08;0.95;;;;;;;11.16;100.00;101914.50;4970217;28;20467;-75
2023/06/03 05:09:36;;;;;;;2.42;0.80;;;;;;;11.64;100.00;101929.78;4954346;28;20022;-77
2023/06/03 05:12:01;;;;;;;3.57;1.40;;;;;;;12.02;100.00;101922.75;4944428;28;20030;-77
2023/06/03 05:14:29;;;;;;;3.50;0.90;;;;;;;12.34;100.00;101900.09;4960226;28;20544;-77
2023/06/03 05:16:54;;;;;;;6.43;0.80;;;;;;;12.55;100.00;101847.19;4952675;28;20023;-77
2023/06/03 05:19:21;;;;;;;3.90;0.90;;;;;;;13.00;100.00;101822.22;4962159;28;20050;-74
2023/06/03 05:21:46;;;;;;;2.60;0.87;;;;;;;13.44;100.00;101779.41;4977268;28;20121;-75
2023/06/03 05:24:12;;;;;;;2.28;0.77;;;;;;;13.93;100.00;101720.66;4963183;28;20037;-75
2023/06/03 05:26:38;;;;;;;2.00;0.80;;;;;;;14.25;100.00;101619.72;4971461;28;20026;-75
2023/06/03 05:29:04;;;;;;;3.70;1.30;;;;;;;14.81;100.00;101562.66;4964305;28;20030;-75
2023/06/03 05:31:29;;;;;;;3.83;0.90;;;;;;;15.43;100.00;101425.59;4965473;28;20047;-77
2023/06/03 05:33:55;;;;;;;1.23;0.70;;;;;;;16.71;100.00;101254.94;4986335;28;20038;-75
2023/06/03 05:36:26;;;;;;;2.80;1.38;;;;;;;17.19;100.00;100933.38;4963440;28;20265;-75
2023/06/03 05:38:52;;;;;;;5.63;1.00;;;;;;;17.72;100.00;100772.38;4974089;28;20053;-76
2023/06/03 05:41:18;;;;;;;2.33;0.90;;;;;;;18.60;100.00;100733.28;4977930;28;20109;-77
2023/06/03 05:43:43;;;;;;;3.07;0.70;;;;;;;19.59;98.99;100619.91;4956498;28;20039;-77
2023/06/03 05:46:08;;;;;;;4.07;1.00;;;;;;;19.67;92.72;100440.88;4953585;28;20023;-77
2023/06/03 05:48:35;;;;;;;0.75;0.75;;;;;;;20.81;87.52;100440.75;4964523;28;20034;-76
2023/06/03 05:51:00;;;;;;;1.07;0.50;;;;;;;21.28;79.98;100144.72;4967623;28;20022;-76
2023/06/03 05:53:29;;;;;;;1.98;0.40;;;;;;;20.70;77.13;100033.88;4957664;28;20368;-76
2023/06/03 05:55:56;;;;;;;3.00;0.73;;;;;;;21.23;73.48;99970.09;4955274;28;20022;-76
2023/06/03 05:58:24;;;;;;;1.95;0.60;;;;;;;22.07;71.20;100104.78;4957654;28;20027;-77
2023/06/03 06:00:49;;;;;;;1.05;0.70;;;;;;;22.12;67.65;99906.41;4952680;28;20064;-77
2023/06/03 06:03:16;;;;;;;1.35;0.70;;;;;;;22.26;66.37;100062.59;4963736;28;20041;-77
2023/06/03 06:05:42;;;;;;;2.35;1.15;;;;;;;22.47;63.12;99867.81;4962664;28;20030;-76
2023/06/03 06:08:07;;;;;;;1.30;0.73;;;;;;;22.55;61.79;99905.41;4958876;28;20503;-76
2023/06/03 06:10:33;;;;;;;;;;;;;;;20.91;61.04;99574.66;4958721;28;20113;-76
2023/06/03 06:12:59;;;;;;;1.90;1.05;;;;;;;19.64;62.03;99574.06;4963941;28;20052;-76
2023/06/03 06:15:28;;;;;;;2.05;0.70;;;;;;;19.07;64.28;99834.81;4975447;28;20022;-76
2023/06/03 06:17:53;;;;;;;2.03;0.60;;;;;;;20.09;62.83;100064.25;4970985;28;20038;-75
2023/06/03 06:20:18;;;;;;;1.40;0.90;;;;;;;19.12;63.91;100018.88;4963082;28;20029;-75
2023/06/03 06:22:44;;;;;;;1.25;0.63;;;;;;;20.54;63.95;100424.09;4955673;28;20023;-76
2023/06/03 06:25:09;;;;;;;2.00;0.60;;;;;;;20.83;61.78;100213.41;4942431;28;20445;-76
2023/06/03 06:27:35;;;;;;;1.30;0.80;;;;;;;21.86;59.04;100204.25;4962782;28;20027;-76
2023/06/03 06:30:02;;;;;;;1.00;0.45;;;;;;;21.73;56.86;99893.03;4969215;28;20057;-75
2023/06/03 06:32:29;;;;;;;3.35;0.73;;;;;;;21.75;56.03;99871.88;4950907;28;20122;-75
2023/06/03 06:34:55;;;;;;;0.68;0.50;;;;;;;21.86;53.57;99637.19;4954032;28;20034;-76
2023/06/03 06:37:21;;;;;;;0.70;0.40;;;;;;;21.90;52.75;99592.13;4980952;28;20060;-76
2023/06/03 06:39:48;;;;;;;0.95;0.60;;;;;;;21.64;51.82;99465.44;4979574;28;20019;-75
2023/06/03 06:42:32;;;;;;;1.60;0.57;;;;;;;21.12;51.05;99277.16;4957175;28;20031;-75
2023/06/03 06:45:15;;;;;;;2.05;0.50;;;;;;;18.92;52.73;98951.91;4950773;28;20054;-75
2023/06/03 06:47:41;;;;;;;2.10;0.73;;;;;;;20.45;53.96;99802.75;4966740;28;20022;-75
2023/06/03 06:50:42;;;;;;;1.17;0.60;;;;;;;21.26;52.75;99823.03;4942894;28;20703;-76
2023/06/03 06:53:07;;;;;;;1.00;0.52;;;;;;;20.53;52.00;99570.22;4969916;28;20034;-75
2023/06/03 06:55:54;;;;;;;3.53;0.90;;;;;;;19.88;49.64;98952.63;4963100;28;20027;-76
2023/06/03 06:58:36;;;;;;;0.75;0.35;;;;;;;20.87;51.03;99625.09;4951120;28;20073;-75
2023/06/03 07:01:05;;;;;;;1.83;0.40;;;;;;;21.48;50.17;99704.31;4963205;28;20049;-76
2023/06/03 07:03:33;;;;;;;2.35;0.77;;;;;;;21.46;49.17;99529.19;4939042;28;20480;-75
2023/06/03 07:05:59;;;;;;;2.30;0.57;;;;;;;21.60;47.47;99353.00;4982619;28;20661;-76
2023/06/03 07:08:26;;;;;;;3.03;0.60;;;;;;;21.31;45.31;98843.19;4964116;28;20149;-76
2023/06/03 07:10:57;;;;;;;0.57;0.50;;;;;;;20.98;45.76;98966.78;4937510;28;20118;-76
2023/06/03 07:13:23;;;;;;;0.85;0.60;;;;;;;20.06;44.15;98330.22;4947897;28;20041;-75
2023/06/03 07:15:49;;;;;;;1.40;0.68;;;;;;;20.70;45.75;99038.63;4967128;28;20040;-76
2023/06/03 07:18:14;;;;;;;0.60;0.50;;;;;;;19.71;44.27;98378.13;4993687;28;20953;-76
2023/06/03 07:20:47;;;;;;;0.85;0.50;;;;;;;20.11;44.71;98704.81;4976254;28;20022;-75
2023/06/03 07:23:19;;;;;;;1.17;0.52;;;;;;;20.39;43.33;98619.34;4958587;28;20034;-76
2023/06/03 07:25:46;;;;;;;0.50;0.50;;;;;;;19.69;43.09;98294.50;4958459;28;20114;-76
2023/06/03 07:28:13;;;;;;;1.65;0.55;;;;;;;18.87;43.45;98088.66;4941811;28;20081;-76
2023/06/03 07:30:40;;;;;;;0.43;0.40;;;;;;;19.25;44.22;98500.06;4974991;28;20510;-76
2023/06/03 07:33:20;;;;;;;1.80;0.60;;;;;;;19.10;44.69;98531.44;4984759;28;20027;-76
2023/06/03 07:35:45;;;;;;;1.17;0.50;;;;;;;18.54;43.43;98059.41;4966089;28;20042;-76
2023/06/03 07:38:29;;;;;;;2.22;0.40;;;;;;;19.16;43.49;98386.19;4971403;28;20018;-76
2023/06/03 07:40:55;;;;;;;0.45;0.40;;;;;;;19.05;45.28;98777.53;4952803;28;20035;-75
2023/06/03 07:43:20;;;;;;;1.07;0.97;;;;;;;18.70;43.98;98351.16;4950163;28;20046;-75
2023/06/03 07:45:46;;;;;;;1.03;0.50;;;;;;;18.33;44.47;98382.00;4975793;28;20282;-75
2023/06/03 07:48:14;;;;;;;2.77;0.60;;;;;;;19.38;44.77;98868.25;4959544;28;20480;-75
2023/06/03 07:50:40;;;;;;;0.73;0.40;;;;;;;20.01;44.83;99146.28;4966828;28;20133;-76
2023/06/03 07:53:05;;;;;;;1.53;0.77;;;;;;;19.94;44.05;98937.97;4982451;28;20113;-75
2023/06/03 07:55:39;;;;;;;1.43;0.40;;;;;;;19.11;44.29;98578.22;4994822;28;20380;-76
2023/06/03 07:58:05;;;;;;;1.70;0.47;;;;;;;19.18;44.07;98662.63;4992265;28;20620;-76
2023/06/03 08:00:30;;;;;;;1.52;0.50;;;;;;;20.28;44.57;99234.78;4974442;28;20022;-76
2023/06/03 08:02:56;;;;;;;1.90;0.35;;;;;;;19.09;42.61;98310.78;4952159;28;20475;-76
2023/06/03 08:05:31;;;;;;;0.60;0.57;;;;;;;19.77;43.72;98900.31;4977974;28;20628;-76
2023/06/03 08:07:57;;;;;;;0.55;0.50;;;;;;;18.94;42.91;98237.81;4987013;28;20058;-76
2023/06/03 08:10:24;;;;;;;1.13;0.70;;;;;;;19.18;44.07;98678.84;4974421;28;20527;-76
2023/06/03 08:12:50;;;;;;;0.25;0.25;;;;;;;20.61;43.74;99217.31;4996242;28;20046;-76
2023/06/03 08:15:32;;;;;;;1.63;0.47;;;;;;;21.14;42.68;99203.59;4983479;28;20036;-76
2023/06/03 08:17:59;;;;;;;2.05;0.70;;;;;;;20.51;42.46;98870.25;4993524;28;20305;-76
2023/06/03 08:20:26;;;;;;;4.43;1.10;;;;;;;20.36;43.47;99002.00;4988341;28;20026;-76
2023/06/03 08:22:52;;;;;;;2.22;0.60;;;;;;;20.22;42.52;98784.94;4998586;28;20038;-76
2023/06/03 08:25:18;;;;;;;;;;;;;;;19.93;43.71;98886.81;4985356;28;20022;-76
2023/06/03 08:27:43;;;;;;;0.95;0.73;;;;;;;20.33;44.28;99232.06;4983871;28;19914;-76
2023/06/03 08:30:12;;;;;;;0.80;0.40;;;;;;;20.79;45.20;99584.84;4984501;28;20026;-76
2023/06/03 08:32:38;;;;;;;0.55;0.40;;;;;;;20.78;44.40;99374.41;4996180;28;20399;-76
2023/06/03 08:35:06;;;;;;;1.50;0.80;;;;;;;20.86;45.03;99449.81;4973758;28;20298;-76
2023/06/03 08:37:33;;;;;;;2.70;0.50;;;;;;;20.80;43.79;99201.38;4991386;28;20044;-76
2023/06/03 08:40:00;;;;;;;1.02;0.52;;;;;;;21.43;43.39;99416.50;4986360;28;20026;-76
2023/06/03 08:42:34;;;;;;;1.02;0.70;;;;;;;21.67;43.11;99422.25;5002566;28;20417;-76
2023/06/03 08:45:07;;;;;;;1.02;0.60;;;;;;;21.38;42.87;99223.72;5003704;28;20412;-76
2023/06/03 08:47:55;;;;;;;0.77;0.60;;;;;;;21.71;42.88;99360.09;4995296;28;20038;-77
2023/06/03 08:50:22;;;;;;;1.23;0.75;;;;;;;22.14;41.53;99296.22;4989906;28;20488;-76
2023/06/03 08:52:51;;;;;;;1.50;0.73;;;;;;;21.58;40.55;98823.78;5000586;28;20057;-77
2023/06/03 08:55:16;;;;;;;1.77;0.75;;;;;;;22.42;40.55;99170.88;4965797;28;20049;-76
2023/06/03 08:57:51;;;;;;;1.43;0.60;;;;;;;22.06;40.19;98919.06;4984760;28;20468;-76
2023/06/03 09:00:21;;;;;;;3.05;0.60;;;;;;;22.39;40.90;99168.72;4991107;28;20026;-77
2023/06/03 09:02:48;;;;;;;1.17;0.60;;;;;;;22.23;40.06;98973.06;5003279;28;20066;-77
2023/06/03 09:05:14;;;;;;;0.65;0.60;;;;;;;20.80;40.55;98459.16;4988515;28;20033;-77
2023/06/03 09:07:41;;;;;;;1.48;0.60;;;;;;;22.17;40.58;99156.25;4994668;28;20589;-77
2023/06/03 09:10:08;;;;;;;3.63;0.55;;;;;;;21.42;40.78;98776.94;4956358;28;20027;-76
2023/06/03 09:12:34;;;;;;;3.08;0.80;;;;;;;19.76;41.54;98235.44;4997889;28;20030;-76
2023/06/03 09:15:00;;;;;;;;;;;;;;;19.87;42.56;98552.91;5000396;28;20065;-76
2023/06/03 09:17:27;;;;;;;0.88;0.73;;;;;;;20.79;43.39;99178.03;4953039;28;19991;-76
2023/06/03 09:19:53;;;;;;;;;;;;;;;22.26;41.19;99382.13;4993833;28;20057;-76
2023/06/03 09:22:19;;;;;;;3.22;0.70;;;;;;;20.99;41.38;98757.59;4987290;28;19913;-76
2023/06/03 09:24:45;;;;;;;0.68;0.60;;;;;;;22.19;41.77;99431.31;4996581;28;20030;-76
2023/06/03 09:27:10;;;;;;;3.07;0.67;;;;;;;21.28;40.51;98725.16;4969334;28;20054;-76
2023/06/03 09:29:35;;;;;;;1.27;0.40;;;;;;;21.07;41.70;98876.41;4995682;28;20067;-76
2023/06/03 09:32:02;;;;;;;1.30;0.70;;;;;;;20.20;44.20;99001.13;4983088;28;20092;-76
2023/06/03 09:34:28;;;;;;;2.78;0.75;;;;;;;20.81;43.00;99141.44;4997272;28;20041;-76
2023/06/03 09:36:54;;;;;;;;;;;;;;;22.01;41.44;99302.25;4984503;28;20022;-75
2023/06/03 09:39:33;;;;;;;1.73;0.63;;;;;;;22.15;41.26;99275.31;4955417;28;19924;-76
2023/06/03 09:41:59;;;;;;;1.65;0.50;;;;;;;21.54;41.42;98998.38;4971758;28;20064;-76
2023/06/03 09:44:36;;;;;;;2.90;0.60;;;;;;;21.59;42.11;99169.44;4997969;28;20023;-76
2023/06/03 09:47:01;;;;;;;0.82;0.60;;;;;;;22.80;40.29;99334.44;4984036;28;20039;-76
2023/06/03 09:49:27;;;;;;;1.67;0.70;;;;;;;23.20;39.31;99273.56;5000514;28;20026;-76
2023/06/03 09:51:52;;;;;;;1.40;0.90;;;;;;;23.41;38.59;99229.88;5000632;28;20080;-76
2023/06/03 09:54:22;;;;;;;1.33;0.93;;;;;;;23.22;36.68;98726.16;4993005;28;20022;-76
2023/06/03 09:56:48;;;;;;;1.60;0.80;;;;;;;23.43;36.62;98824.66;4978940;28;20030;-76
2023/06/03 09:59:21;;;;;;;1.07;0.60;;;;;;;23.68;37.32;99001.38;4990492;28;20057;-75
2023/06/03 10:01:48;;;;;;;1.52;0.60;;;;;;;23.86;36.28;98879.91;4989622;28;20479;-76
2023/06/03 10:04:36;;;;;;;2.50;0.98;;;;;;;24.20;36.20;98968.81;4968507;28;20022;-76
2023/06/03 10:07:14;;;;;;;1.55;0.70;;;;;;;24.94;34.84;98906.19;4995526;28;20089;-76
2023/06/03 10:09:44;;;;;;;3.15;1.15;;;;;;;24.79;34.24;98715.47;4986134;28;20037;-76
2023/06/03 10:12:11;;;;;;;2.03;0.80;;;;;;;24.22;35.51;98749.28;4971939;28;20034;-76
2023/06/03 10:14:47;;;;;;;1.35;0.80;;;;;;;24.58;35.08;98750.53;4988755;28;20428;-76
2023/06/03 10:17:14;;;;;;;0.82;0.55;;;;;;;24.85;35.06;98902.56;4996786;28;20467;-76
2023/06/03 10:19:41;;;;;;;2.55;0.88;;;;;;;25.35;34.53;98967.41;4996768;28;20535;-75
2023/06/03 10:22:09;;;;;;;1.60;0.88;;;;;;;25.45;33.21;98685.84;5000006;28;20038;-76
2023/06/03 10:24:38;;;;;;;2.67;0.65;;;;;;;25.05;35.08;98901.34;5002241;28;20021;-77
2023/06/03 10:27:04;;;;;;;3.00;1.45;;;;;;;25.61;33.68;98826.44;4999936;28;20049;-76
2023/06/03 10:29:30;;;;;;;4.13;0.93;;;;;;;26.15;32.60;98823.78;5002668;28;20018;-76
2023/06/03 10:31:56;;;;;;;2.83;0.60;;;;;;;25.75;32.28;98500.38;4976239;28;20066;-76
2023/06/03 10:34:22;;;;;;;2.97;0.80;;;;;;;24.77;33.04;98283.84;5001781;28;20040;-76
2023/06/03 10:36:56;;;;;;;1.35;0.65;;;;;;;25.95;33.25;98928.22;4984506;28;20033;-75
2023/06/03 10:39:24;;;;;;;1.73;0.80;;;;;;;25.13;31.59;98076.16;4989804;28;20037;-76
2023/06/03 10:41:51;;;;;;;3.80;0.93;;;;;;;24.81;31.95;98116.47;5000244;28;20467;-76
2023/06/03 10:44:19;;;;;;;1.73;0.80;;;;;;;24.72;32.04;98014.72;4999279;28;20472;-76
2023/06/03 10:47:04;;;;;;;2.03;0.70;;;;;;;24.94;32.84;98411.38;4969726;28;20428;-76
2023/06/03 10:49:33;;;;;;;;;;;;;;;25.08;32.94;98471.34;4963737;28;20453;-76
2023/06/03 10:52:36;;;;;;;1.27;0.75;;;;;;;24.77;32.73;98311.97;4954657;28;20401;-75
2023/06/03 10:55:19;;;;;;;6.65;1.17;;;;;;;24.52;33.45;98269.03;4982144;28;20038;-75
2023/06/03 10:57:52;;;;;;;1.10;0.80;;;;;;;25.02;34.13;98735.44;4995418;28;20034;-76
2023/06/03 11:00:56;;;;;;;2.58;0.73;;;;;;;24.52;34.17;98539.81;4985764;28;20130;-77
2023/06/03 11:03:25;;;;;;;1.27;0.70;;;;;;;24.96;33.36;98559.25;4989143;28;20026;-77
2023/06/03 11:05:52;;;;;;;4.30;0.80;;;;;;;25.23;33.72;98739.34;4994216;28;20424;-74
2023/06/03 11:08:57;;;;;;;2.42;0.75;;;;;;;25.83;32.93;98871.31;4985899;28;20519;-74
2023/06/03 11:11:40;;;;;;;;;;;;;;;26.27;31.88;98730.22;4942332;29;20043;-75
2023/06/03 11:14:09;;;;;;;3.35;0.77;;;;;;;25.48;32.18;98417.56;4912375;29;19954;-77
2023/06/03 11:16:57;;;;;;;2.17;0.80;;;;;;;25.18;31.33;98059.66;4925864;29;20046;-77
2023/06/03 11:19:34;;;;;;;1.73;0.57;;;;;;;25.68;31.21;98410.66;4937671;29;20547;-78
2023/06/03 11:22:00;;;;;;;2.22;0.85;;;;;;;25.04;32.19;98200.94;4933338;29;20039;-77
2023/06/03 11:24:38;;;;;;;2.35;0.80;;;;;;;25.33;31.58;98273.25;4926467;29;20612;-77
2023/06/03 11:27:09;;;;;;;3.10;0.85;;;;;;;25.37;32.87;98552.78;4923012;29;20131;-78
2023/06/03 11:29:43;;;;;;;4.13;0.80;;;;;;;24.96;31.68;98078.91;4900775;29;20035;-77
2023/06/03 11:32:12;;;;;;;1.48;0.52;;;;;;;24.91;31.48;98038.13;4918436;29;20051;-77
2023/06/03 11:34:38;;;;;;;6.63;1.05;;;;;;;24.68;31.28;97879.28;4927843;29;20028;-77
2023/06/03 11:37:03;;;;;;;1.67;1.23;;;;;;;25.02;31.80;98225.00;4940464;29;20032;-77
2023/06/03 11:39:59;;;;;;;2.45;0.80;;;;;;;24.92;32.15;98214.41;4940682;29;20065;-77